sensor_id;sensor_type;location;lat;lon;timestamp;P1;durP1;ratioP1;P2;durP2;ratioP2
9420;SDS011;4749;51.398;5.466;2023-05-07T00:00:12;7.05;;;5.28;;
9420;SDS011;4749;51.398;5.466;2023-05-07T00:02:41;6.35;;;5.78;;
9420;SDS011;4749;51.398;5.466;2023-05-07T00:05:09;7.18;;;6.10;;
9420;SDS011;4749;51.398;5.466;2023-05-07T00:07:37;7.40;;;6.15;;
9420;SDS011;4749;51.398;5.466;2023-05-07T00:10:04;7.03;;;6.35;;
9420;SDS011;4749;51.398;5.466;2023-05-07T00:12:33;6.75;;;6.05;;
9420;SDS011;4749;51.398;5.466;2023-05-07T00:15:01;7.72;;;6.57;;
9420;SDS011;4749;51.398;5.466;2023-05-07T00:17:29;8.35;;;5.90;;
9420;SDS011;4749;51.398;5.466;2023-05-07T00:19:57;6.50;;;5.90;;
9420;SDS011;4749;51.398;5.466;2023-05-07T00:22:24;8.48;;;6.88;;
9420;SDS011;4749;51.398;5.466;2023-05-07T00:24:51;8.13;;;6.68;;
9420;SDS011;4749;51.398;5.466;2023-05-07T00:27:18;7.45;;;6.72;;
9420;SDS011;4749;51.398;5.466;2023-05-07T00:29:45;7.07;;;6.30;;
9420;SDS011;4749;51.398;5.466;2023-05-07T00:32:12;7.95;;;7.15;;
9420;SDS011;4749;51.398;5.466;2023-05-07T00:34:39;10.35;;;7.65;;
9420;SDS011;4749;51.398;5.466;2023-05-07T00:37:06;8.23;;;7.32;;
9420;SDS011;4749;51.398;5.466;2023-05-07T00:39:35;7.97;;;7.22;;
9420;SDS011;4749;51.398;5.466;2023-05-07T00:42:02;9.07;;;7.88;;
9420;SDS011;4749;51.398;5.466;2023-05-07T00:44:30;8.57;;;7.65;;
9420;SDS011;4749;51.398;5.466;2023-05-07T00:46:57;8.77;;;7.68;;
9420;SDS011;4749;51.398;5.466;2023-05-07T00:49:32;10.00;;;8.05;;
9420;SDS011;4749;51.398;5.466;2023-05-07T00:52:07;9.63;;;8.35;;
9420;SDS011;4749;51.398;5.466;2023-05-07T00:54:40;8.88;;;8.05;;
9420;SDS011;4749;51.398;5.466;2023-05-07T00:57:08;9.15;;;8.20;;
9420;SDS011;4749;51.398;5.466;2023-05-07T00:59:39;11.25;;;8.30;;
9420;SDS011;4749;51.398;5.466;2023-05-07T01:02:07;8.98;;;7.60;;
9420;SDS011;4749;51.398;5.466;2023-05-07T01:04:34;9.57;;;8.43;;
9420;SDS011;4749;51.398;5.466;2023-05-07T01:07:02;13.27;;;9.57;;
9420;SDS011;4749;51.398;5.466;2023-05-07T01:09:31;11.40;;;9.55;;
9420;SDS011;4749;51.398;5.466;2023-05-07T01:11:58;11.38;;;9.35;;
9420;SDS011;4749;51.398;5.466;2023-05-07T01:14:26;12.35;;;9.57;;
9420;SDS011;4749;51.398;5.466;2023-05-07T01:16:53;11.88;;;9.57;;
9420;SDS011;4749;51.398;5.466;2023-05-07T01:19:21;10.70;;;9.60;;
9420;SDS011;4749;51.398;5.466;2023-05-07T01:21:48;11.90;;;9.10;;
9420;SDS011;4749;51.398;5.466;2023-05-07T01:24:17;11.73;;;10.18;;
9420;SDS011;4749;51.398;5.466;2023-05-07T01:26:44;13.00;;;9.68;;
9420;SDS011;4749;51.398;5.466;2023-05-07T01:29:11;16.15;;;11.27;;
9420;SDS011;4749;51.398;5.466;2023-05-07T01:31:39;13.52;;;10.68;;
9420;SDS011;4749;51.398;5.466;2023-05-07T01:34:08;13.35;;;10.00;;
9420;SDS011;4749;51.398;5.466;2023-05-07T01:36:38;13.40;;;10.70;;
9420;SDS011;4749;51.398;5.466;2023-05-07T01:39:08;12.57;;;10.43;;
9420;SDS011;4749;51.398;5.466;2023-05-07T01:41:36;11.65;;;10.38;;
9420;SDS011;4749;51.398;5.466;2023-05-07T01:44:03;13.68;;;10.70;;
9420;SDS011;4749;51.398;5.466;2023-05-07T01:46:32;12.82;;;10.77;;
9420;SDS011;4749;51.398;5.466;2023-05-07T01:49:00;15.43;;;11.60;;
9420;SDS011;4749;51.398;5.466;2023-05-07T01:51:27;14.82;;;11.00;;
9420;SDS011;4749;51.398;5.466;2023-05-07T01:53:54;12.88;;;11.30;;
9420;SDS011;4749;51.398;5.466;2023-05-07T01:56:23;12.95;;;10.55;;
9420;SDS011;4749;51.398;5.466;2023-05-07T01:58:51;14.32;;;11.35;;
9420;SDS011;4749;51.398;5.466;2023-05-07T02:01:18;17.60;;;12.02;;
9420;SDS011;4749;51.398;5.466;2023-05-07T02:03:46;12.75;;;11.43;;
9420;SDS011;4749;51.398;5.466;2023-05-07T02:06:13;15.48;;;12.07;;
9420;SDS011;4749;51.398;5.466;2023-05-07T02:08:40;15.02;;;12.38;;
9420;SDS011;4749;51.398;5.466;2023-05-07T02:11:07;14.73;;;12.10;;
9420;SDS011;4749;51.398;5.466;2023-05-07T02:13:34;14.68;;;11.52;;
9420;SDS011;4749;51.398;5.466;2023-05-07T02:16:02;14.90;;;12.52;;
9420;SDS011;4749;51.398;5.466;2023-05-07T02:18:30;16.05;;;13.07;;
9420;SDS011;4749;51.398;5.466;2023-05-07T02:20:58;14.65;;;13.10;;
9420;SDS011;4749;51.398;5.466;2023-05-07T02:23:25;18.15;;;13.32;;
9420;SDS011;4749;51.398;5.466;2023-05-07T02:25:52;15.82;;;14.13;;
9420;SDS011;4749;51.398;5.466;2023-05-07T02:28:19;16.75;;;13.45;;
9420;SDS011;4749;51.398;5.466;2023-05-07T02:30:46;15.30;;;13.27;;
9420;SDS011;4749;51.398;5.466;2023-05-07T02:33:13;14.80;;;12.90;;
9420;SDS011;4749;51.398;5.466;2023-05-07T02:35:40;18.52;;;14.20;;
9420;SDS011;4749;51.398;5.466;2023-05-07T02:38:07;17.77;;;14.52;;
9420;SDS011;4749;51.398;5.466;2023-05-07T02:40:36;15.60;;;13.93;;
9420;SDS011;4749;51.398;5.466;2023-05-07T02:43:06;18.30;;;14.10;;
9420;SDS011;4749;51.398;5.466;2023-05-07T02:45:33;17.27;;;13.73;;
9420;SDS011;4749;51.398;5.466;2023-05-07T02:48:01;16.40;;;13.52;;
9420;SDS011;4749;51.398;5.466;2023-05-07T02:50:28;20.35;;;14.68;;
9420;SDS011;4749;51.398;5.466;2023-05-07T02:52:55;18.73;;;14.93;;
9420;SDS011;4749;51.398;5.466;2023-05-07T02:55:22;17.27;;;14.63;;
9420;SDS011;4749;51.398;5.466;2023-05-07T02:57:49;17.38;;;14.23;;
9420;SDS011;4749;51.398;5.466;2023-05-07T03:00:17;16.98;;;14.35;;
9420;SDS011;4749;51.398;5.466;2023-05-07T03:02:45;18.10;;;14.48;;
9420;SDS011;4749;51.398;5.466;2023-05-07T03:05:13;19.38;;;14.15;;
9420;SDS011;4749;51.398;5.466;2023-05-07T03:07:40;19.65;;;15.57;;
9420;SDS011;4749;51.398;5.466;2023-05-07T03:10:11;18.98;;;14.98;;
9420;SDS011;4749;51.398;5.466;2023-05-07T03:12:39;19.92;;;15.35;;
9420;SDS011;4749;51.398;5.466;2023-05-07T03:15:06;16.67;;;14.02;;
9420;SDS011;4749;51.398;5.466;2023-05-07T03:17:34;18.35;;;15.45;;
9420;SDS011;4749;51.398;5.466;2023-05-07T03:20:02;17.75;;;15.45;;
9420;SDS011;4749;51.398;5.466;2023-05-07T03:22:29;20.95;;;16.05;;
9420;SDS011;4749;51.398;5.466;2023-05-07T03:24:57;19.50;;;16.88;;
9420;SDS011;4749;51.398;5.466;2023-05-07T03:27:24;18.58;;;15.82;;
9420;SDS011;4749;51.398;5.466;2023-05-07T03:29:51;20.27;;;16.50;;
9420;SDS011;4749;51.398;5.466;2023-05-07T03:32:18;19.88;;;15.85;;
9420;SDS011;4749;51.398;5.466;2023-05-07T03:34:45;19.35;;;16.52;;
9420;SDS011;4749;51.398;5.466;2023-05-07T03:37:12;20.40;;;16.83;;
9420;SDS011;4749;51.398;5.466;2023-05-07T03:39:39;20.25;;;16.30;;
9420;SDS011;4749;51.398;5.466;2023-05-07T03:42:06;20.13;;;16.45;;
9420;SDS011;4749;51.398;5.466;2023-05-07T03:44:33;21.45;;;16.77;;
9420;SDS011;4749;51.398;5.466;2023-05-07T03:47:02;21.05;;;17.63;;
9420;SDS011;4749;51.398;5.466;2023-05-07T03:49:30;18.98;;;16.90;;
9420;SDS011;4749;51.398;5.466;2023-05-07T03:51:57;23.17;;;18.05;;
9420;SDS011;4749;51.398;5.466;2023-05-07T03:54:24;21.92;;;18.00;;
9420;SDS011;4749;51.398;5.466;2023-05-07T03:56:51;21.13;;;18.05;;
9420;SDS011;4749;51.398;5.466;2023-05-07T03:59:18;23.40;;;18.67;;
9420;SDS011;4749;51.398;5.466;2023-05-07T04:01:45;22.42;;;17.88;;
9420;SDS011;4749;51.398;5.466;2023-05-07T04:04:13;22.17;;;18.42;;
9420;SDS011;4749;51.398;5.466;2023-05-07T04:06:40;24.08;;;19.90;;
9420;SDS011;4749;51.398;5.466;2023-05-07T04:09:07;22.98;;;18.42;;
9420;SDS011;4749;51.398;5.466;2023-05-07T04:11:35;24.02;;;18.35;;
9420;SDS011;4749;51.398;5.466;2023-05-07T04:14:02;23.15;;;18.67;;
9420;SDS011;4749;51.398;5.466;2023-05-07T04:16:29;23.98;;;19.25;;
9420;SDS011;4749;51.398;5.466;2023-05-07T04:18:57;24.20;;;19.63;;
9420;SDS011;4749;51.398;5.466;2023-05-07T04:21:25;26.15;;;19.38;;
9420;SDS011;4749;51.398;5.466;2023-05-07T04:23:53;25.38;;;19.73;;
9420;SDS011;4749;51.398;5.466;2023-05-07T04:26:20;23.42;;;19.17;;
9420;SDS011;4749;51.398;5.466;2023-05-07T04:28:47;23.10;;;19.17;;
9420;SDS011;4749;51.398;5.466;2023-05-07T04:31:14;22.83;;;19.55;;
9420;SDS011;4749;51.398;5.466;2023-05-07T04:33:42;23.17;;;18.98;;
9420;SDS011;4749;51.398;5.466;2023-05-07T04:36:09;25.02;;;19.38;;
9420;SDS011;4749;51.398;5.466;2023-05-07T04:38:36;25.60;;;20.67;;
9420;SDS011;4749;51.398;5.466;2023-05-07T04:41:04;24.65;;;20.58;;
9420;SDS011;4749;51.398;5.466;2023-05-07T04:43:32;23.58;;;20.38;;
9420;SDS011;4749;51.398;5.466;2023-05-07T04:45:59;24.63;;;19.38;;
9420;SDS011;4749;51.398;5.466;2023-05-07T04:48:26;22.52;;;19.33;;
9420;SDS011;4749;51.398;5.466;2023-05-07T04:50:55;23.35;;;18.88;;
9420;SDS011;4749;51.398;5.466;2023-05-07T04:53:22;23.55;;;19.02;;
9420;SDS011;4749;51.398;5.466;2023-05-07T04:55:54;24.45;;;19.30;;
9420;SDS011;4749;51.398;5.466;2023-05-07T04:58:25;24.92;;;20.13;;
9420;SDS011;4749;51.398;5.466;2023-05-07T05:00:53;22.23;;;19.45;;
9420;SDS011;4749;51.398;5.466;2023-05-07T05:03:21;28.30;;;19.88;;
9420;SDS011;4749;51.398;5.466;2023-05-07T05:05:51;23.98;;;20.73;;
9420;SDS011;4749;51.398;5.466;2023-05-07T05:08:19;23.40;;;19.65;;
9420;SDS011;4749;51.398;5.466;2023-05-07T05:10:46;28.10;;;20.50;;
9420;SDS011;4749;51.398;5.466;2023-05-07T05:13:14;25.33;;;20.75;;
9420;SDS011;4749;51.398;5.466;2023-05-07T05:15:42;22.33;;;19.50;;
9420;SDS011;4749;51.398;5.466;2023-05-07T05:18:09;22.60;;;20.17;;
9420;SDS011;4749;51.398;5.466;2023-05-07T05:20:36;27.08;;;21.08;;
9420;SDS011;4749;51.398;5.466;2023-05-07T05:23:03;25.90;;;19.85;;
9420;SDS011;4749;51.398;5.466;2023-05-07T05:25:30;23.17;;;20.10;;
9420;SDS011;4749;51.398;5.466;2023-05-07T05:27:57;22.80;;;19.40;;
9420;SDS011;4749;51.398;5.466;2023-05-07T05:30:24;23.67;;;18.65;;
9420;SDS011;4749;51.398;5.466;2023-05-07T05:32:51;23.02;;;19.83;;
9420;SDS011;4749;51.398;5.466;2023-05-07T05:35:19;25.65;;;18.98;;
9420;SDS011;4749;51.398;5.466;2023-05-07T05:37:46;24.25;;;20.33;;
9420;SDS011;4749;51.398;5.466;2023-05-07T05:40:14;23.48;;;18.77;;
9420;SDS011;4749;51.398;5.466;2023-05-07T05:42:41;25.73;;;20.35;;
9420;SDS011;4749;51.398;5.466;2023-05-07T05:45:08;24.13;;;20.67;;
9420;SDS011;4749;51.398;5.466;2023-05-07T05:47:36;21.60;;;18.63;;
9420;SDS011;4749;51.398;5.466;2023-05-07T05:50:05;21.60;;;17.33;;
9420;SDS011;4749;51.398;5.466;2023-05-07T05:52:33;21.90;;;19.42;;
9420;SDS011;4749;51.398;5.466;2023-05-07T05:55:00;20.88;;;18.67;;
9420;SDS011;4749;51.398;5.466;2023-05-07T05:57:27;20.85;;;18.40;;
9420;SDS011;4749;51.398;5.466;2023-05-07T05:59:55;24.88;;;18.75;;
9420;SDS011;4749;51.398;5.466;2023-05-07T06:02:22;22.08;;;18.75;;
9420;SDS011;4749;51.398;5.466;2023-05-07T06:04:49;21.02;;;18.48;;
9420;SDS011;4749;51.398;5.466;2023-05-07T06:07:16;21.73;;;18.42;;
9420;SDS011;4749;51.398;5.466;2023-05-07T06:09:43;20.20;;;18.10;;
9420;SDS011;4749;51.398;5.466;2023-05-07T06:12:11;21.02;;;17.95;;
9420;SDS011;4749;51.398;5.466;2023-05-07T06:14:38;21.08;;;17.85;;
9420;SDS011;4749;51.398;5.466;2023-05-07T06:17:05;22.35;;;18.80;;
9420;SDS011;4749;51.398;5.466;2023-05-07T06:19:33;22.20;;;17.40;;
9420;SDS011;4749;51.398;5.466;2023-05-07T06:22:00;19.20;;;16.40;;
9420;SDS011;4749;51.398;5.466;2023-05-07T06:24:28;17.67;;;15.60;;
9420;SDS011;4749;51.398;5.466;2023-05-07T06:26:55;19.10;;;15.95;;
9420;SDS011;4749;51.398;5.466;2023-05-07T06:29:24;18.80;;;16.70;;
9420;SDS011;4749;51.398;5.466;2023-05-07T06:31:55;21.58;;;16.67;;
9420;SDS011;4749;51.398;5.466;2023-05-07T06:34:22;20.63;;;16.35;;
9420;SDS011;4749;51.398;5.466;2023-05-07T06:36:49;18.52;;;15.07;;
9420;SDS011;4749;51.398;5.466;2023-05-07T06:39:19;18.10;;;15.63;;
9420;SDS011;4749;51.398;5.466;2023-05-07T06:41:46;18.45;;;15.48;;
9420;SDS011;4749;51.398;5.466;2023-05-07T06:44:13;18.88;;;15.38;;
9420;SDS011;4749;51.398;5.466;2023-05-07T06:46:41;19.05;;;15.25;;
9420;SDS011;4749;51.398;5.466;2023-05-07T06:49:08;16.88;;;14.98;;
9420;SDS011;4749;51.398;5.466;2023-05-07T06:51:35;17.70;;;15.13;;
9420;SDS011;4749;51.398;5.466;2023-05-07T06:54:03;15.43;;;13.85;;
9420;SDS011;4749;51.398;5.466;2023-05-07T06:56:31;15.95;;;14.18;;
9420;SDS011;4749;51.398;5.466;2023-05-07T06:58:59;15.27;;;13.57;;
9420;SDS011;4749;51.398;5.466;2023-05-07T07:01:28;15.23;;;13.40;;
9420;SDS011;4749;51.398;5.466;2023-05-07T07:03:55;16.10;;;14.40;;
9420;SDS011;4749;51.398;5.466;2023-05-07T07:06:22;15.35;;;13.75;;
9420;SDS011;4749;51.398;5.466;2023-05-07T07:08:50;18.30;;;14.63;;
9420;SDS011;4749;51.398;5.466;2023-05-07T07:11:17;16.35;;;14.23;;
9420;SDS011;4749;51.398;5.466;2023-05-07T07:13:44;14.73;;;13.10;;
9420;SDS011;4749;51.398;5.466;2023-05-07T07:16:11;15.02;;;13.23;;
9420;SDS011;4749;51.398;5.466;2023-05-07T07:18:38;15.23;;;13.65;;
9420;SDS011;4749;51.398;5.466;2023-05-07T07:21:06;16.33;;;14.38;;
9420;SDS011;4749;51.398;5.466;2023-05-07T07:23:34;16.00;;;13.38;;
9420;SDS011;4749;51.398;5.466;2023-05-07T07:26:01;15.32;;;13.45;;
9420;SDS011;4749;51.398;5.466;2023-05-07T07:28:29;15.05;;;13.43;;
9420;SDS011;4749;51.398;5.466;2023-05-07T07:30:56;15.95;;;12.43;;
9420;SDS011;4749;51.398;5.466;2023-05-07T07:33:23;15.65;;;12.77;;
9420;SDS011;4749;51.398;5.466;2023-05-07T07:35:50;14.85;;;12.95;;
9420;SDS011;4749;51.398;5.466;2023-05-07T07:38:17;14.98;;;13.38;;
9420;SDS011;4749;51.398;5.466;2023-05-07T07:40:44;15.40;;;12.75;;
9420;SDS011;4749;51.398;5.466;2023-05-07T07:43:12;16.00;;;12.85;;
9420;SDS011;4749;51.398;5.466;2023-05-07T07:45:39;13.98;;;12.43;;
9420;SDS011;4749;51.398;5.466;2023-05-07T07:48:07;14.73;;;12.43;;
9420;SDS011;4749;51.398;5.466;2023-05-07T07:50:34;15.15;;;12.80;;
9420;SDS011;4749;51.398;5.466;2023-05-07T07:53:11;14.02;;;12.52;;
9420;SDS011;4749;51.398;5.466;2023-05-07T07:55:38;13.68;;;12.20;;
9420;SDS011;4749;51.398;5.466;2023-05-07T07:58:06;14.43;;;11.48;;
9420;SDS011;4749;51.398;5.466;2023-05-07T08:00:33;14.38;;;11.55;;
9420;SDS011;4749;51.398;5.466;2023-05-07T08:03:00;14.45;;;11.60;;
9420;SDS011;4749;51.398;5.466;2023-05-07T08:05:29;12.68;;;11.48;;
9420;SDS011;4749;51.398;5.466;2023-05-07T08:07:56;12.50;;;11.30;;
9420;SDS011;4749;51.398;5.466;2023-05-07T08:10:24;13.13;;;11.75;;
9420;SDS011;4749;51.398;5.466;2023-05-07T08:12:52;16.35;;;12.35;;
9420;SDS011;4749;51.398;5.466;2023-05-07T08:15:19;11.82;;;10.55;;
9420;SDS011;4749;51.398;5.466;2023-05-07T08:17:46;13.38;;;11.30;;
9420;SDS011;4749;51.398;5.466;2023-05-07T08:20:13;14.45;;;11.80;;
9420;SDS011;4749;51.398;5.466;2023-05-07T08:22:40;14.70;;;11.85;;
9420;SDS011;4749;51.398;5.466;2023-05-07T08:25:08;13.05;;;11.38;;
9420;SDS011;4749;51.398;5.466;2023-05-07T08:27:35;12.48;;;11.02;;
9420;SDS011;4749;51.398;5.466;2023-05-07T08:30:03;11.13;;;10.00;;
9420;SDS011;4749;51.398;5.466;2023-05-07T08:32:31;11.88;;;10.70;;
9420;SDS011;4749;51.398;5.466;2023-05-07T08:34:59;11.75;;;9.90;;
9420;SDS011;4749;51.398;5.466;2023-05-07T08:37:27;11.63;;;9.43;;
9420;SDS011;4749;51.398;5.466;2023-05-07T08:39:54;11.73;;;10.25;;
9420;SDS011;4749;51.398;5.466;2023-05-07T08:42:21;11.20;;;9.98;;
9420;SDS011;4749;51.398;5.466;2023-05-07T08:44:51;10.85;;;9.68;;
9420;SDS011;4749;51.398;5.466;2023-05-07T08:47:22;11.98;;;9.35;;
9420;SDS011;4749;51.398;5.466;2023-05-07T08:49:56;11.10;;;9.10;;
9420;SDS011;4749;51.398;5.466;2023-05-07T08:52:23;9.85;;;8.82;;
9420;SDS011;4749;51.398;5.466;2023-05-07T08:54:50;9.85;;;8.65;;
9420;SDS011;4749;51.398;5.466;2023-05-07T08:57:17;9.52;;;8.55;;
9420;SDS011;4749;51.398;5.466;2023-05-07T08:59:46;9.40;;;8.35;;
9420;SDS011;4749;51.398;5.466;2023-05-07T09:02:14;12.50;;;10.13;;
9420;SDS011;4749;51.398;5.466;2023-05-07T09:04:42;8.80;;;7.97;;
9420;SDS011;4749;51.398;5.466;2023-05-07T09:07:09;11.35;;;8.60;;
9420;SDS011;4749;51.398;5.466;2023-05-07T09:09:37;8.88;;;7.97;;
9420;SDS011;4749;51.398;5.466;2023-05-07T09:12:04;9.98;;;8.68;;
9420;SDS011;4749;51.398;5.466;2023-05-07T09:14:31;9.05;;;8.23;;
9420;SDS011;4749;51.398;5.466;2023-05-07T09:16:58;10.43;;;7.78;;
9420;SDS011;4749;51.398;5.466;2023-05-07T09:19:26;9.13;;;7.85;;
9420;SDS011;4749;51.398;5.466;2023-05-07T09:22:00;11.23;;;8.02;;
9420;SDS011;4749;51.398;5.466;2023-05-07T09:24:29;8.57;;;7.68;;
9420;SDS011;4749;51.398;5.466;2023-05-07T09:27:01;8.70;;;7.80;;
9420;SDS011;4749;51.398;5.466;2023-05-07T09:29:28;9.18;;;7.43;;
9420;SDS011;4749;51.398;5.466;2023-05-07T09:32:00;10.30;;;7.82;;
9420;SDS011;4749;51.398;5.466;2023-05-07T09:34:29;8.38;;;7.45;;
9420;SDS011;4749;51.398;5.466;2023-05-07T09:37:01;12.48;;;10.73;;
9420;SDS011;4749;51.398;5.466;2023-05-07T09:39:42;7.78;;;6.75;;
9420;SDS011;4749;51.398;5.466;2023-05-07T09:42:09;8.93;;;7.45;;
9420;SDS011;4749;51.398;5.466;2023-05-07T09:44:38;9.25;;;7.82;;
9420;SDS011;4749;51.398;5.466;2023-05-07T09:47:05;8.25;;;7.10;;
9420;SDS011;4749;51.398;5.466;2023-05-07T09:49:35;8.60;;;7.65;;
9420;SDS011;4749;51.398;5.466;2023-05-07T09:52:04;9.98;;;7.53;;
9420;SDS011;4749;51.398;5.466;2023-05-07T09:54:35;8.63;;;7.68;;
9420;SDS011;4749;51.398;5.466;2023-05-07T09:57:04;10.98;;;6.38;;
9420;SDS011;4749;51.398;5.466;2023-05-07T09:59:33;9.95;;;7.07;;
9420;SDS011;4749;51.398;5.466;2023-05-07T10:02:03;7.47;;;6.07;;
9420;SDS011;4749;51.398;5.466;2023-05-07T10:04:32;7.25;;;6.35;;
9420;SDS011;4749;51.398;5.466;2023-05-07T10:07:00;9.40;;;6.25;;
9420;SDS011;4749;51.398;5.466;2023-05-07T10:09:29;8.70;;;5.50;;
9420;SDS011;4749;51.398;5.466;2023-05-07T10:11:57;7.53;;;6.07;;
9420;SDS011;4749;51.398;5.466;2023-05-07T10:14:25;6.40;;;5.00;;
9420;SDS011;4749;51.398;5.466;2023-05-07T10:16:54;6.80;;;5.40;;
9420;SDS011;4749;51.398;5.466;2023-05-07T10:19:22;23.40;;;8.80;;
9420;SDS011;4749;51.398;5.466;2023-05-07T10:22:01;14.30;;;6.47;;
9420;SDS011;4749;51.398;5.466;2023-05-07T10:24:32;8.00;;;6.10;;
9420;SDS011;4749;51.398;5.466;2023-05-07T10:27:01;7.38;;;5.35;;
9420;SDS011;4749;51.398;5.466;2023-05-07T10:29:37;8.27;;;4.80;;
9420;SDS011;4749;51.398;5.466;2023-05-07T10:32:47;7.20;;;4.70;;
9420;SDS011;4749;51.398;5.466;2023-05-07T10:35:18;7.90;;;4.60;;
9420;SDS011;4749;51.398;5.466;2023-05-07T10:37:52;8.13;;;4.93;;
9420;SDS011;4749;51.398;5.466;2023-05-07T10:40:20;6.53;;;4.65;;
9420;SDS011;4749;51.398;5.466;2023-05-07T10:42:54;6.90;;;4.15;;
9420;SDS011;4749;51.398;5.466;2023-05-07T10:45:36;7.32;;;5.43;;
9420;SDS011;4749;51.398;5.466;2023-05-07T10:48:36;5.15;;;3.90;;
9420;SDS011;4749;51.398;5.466;2023-05-07T10:56:36;6.70;;;3.95;;
9420;SDS011;4749;51.398;5.466;2023-05-07T11:04:32;4.47;;;3.35;;
9420;SDS011;4749;51.398;5.466;2023-05-07T11:15:07;4.57;;;3.42;;
9420;SDS011;4749;51.398;5.466;2023-05-07T11:17:54;7.13;;;4.13;;
9420;SDS011;4749;51.398;5.466;2023-05-07T11:26:07;4.60;;;3.75;;
9420;SDS011;4749;51.398;5.466;2023-05-07T11:28:36;5.15;;;3.63;;
9420;SDS011;4749;51.398;5.466;2023-05-07T11:31:06;4.65;;;3.25;;
9420;SDS011;4749;51.398;5.466;2023-05-07T11:33:34;3.83;;;2.45;;
9420;SDS011;4749;51.398;5.466;2023-05-07T11:36:02;4.25;;;2.65;;
9420;SDS011;4749;51.398;5.466;2023-05-07T11:38:34;3.30;;;2.72;;
9420;SDS011;4749;51.398;5.466;2023-05-07T11:41:05;5.45;;;3.17;;
9420;SDS011;4749;51.398;5.466;2023-05-07T11:43:32;3.60;;;2.40;;
9420;SDS011;4749;51.398;5.466;2023-05-07T11:46:07;4.90;;;3.83;;
9420;SDS011;4749;51.398;5.466;2023-05-07T11:48:38;6.38;;;4.38;;
9420;SDS011;4749;51.398;5.466;2023-05-07T11:51:06;6.05;;;3.80;;
9420;SDS011;4749;51.398;5.466;2023-05-07T11:53:36;4.47;;;3.80;;
9420;SDS011;4749;51.398;5.466;2023-05-07T11:56:09;7.30;;;4.68;;
9420;SDS011;4749;51.398;5.466;2023-05-07T11:58:39;5.85;;;5.28;;
9420;SDS011;4749;51.398;5.466;2023-05-07T12:01:08;6.30;;;4.60;;
9420;SDS011;4749;51.398;5.466;2023-05-07T12:03:36;5.65;;;4.13;;
9420;SDS011;4749;51.398;5.466;2023-05-07T12:06:10;8.15;;;4.55;;
9420;SDS011;4749;51.398;5.466;2023-05-07T12:08:39;5.82;;;4.80;;
9420;SDS011;4749;51.398;5.466;2023-05-07T12:11:08;7.00;;;4.65;;
9420;SDS011;4749;51.398;5.466;2023-05-07T12:14:06;6.18;;;4.50;;
9420;SDS011;4749;51.398;5.466;2023-05-07T12:16:36;5.78;;;4.38;;
9420;SDS011;4749;51.398;5.466;2023-05-07T12:19:07;13.32;;;4.95;;
9420;SDS011;4749;51.398;5.466;2023-05-07T12:21:41;10.27;;;5.35;;
9420;SDS011;4749;51.398;5.466;2023-05-07T12:24:08;9.20;;;4.13;;
9420;SDS011;4749;51.398;5.466;2023-05-07T12:26:38;10.73;;;4.80;;
9420;SDS011;4749;51.398;5.466;2023-05-07T12:29:07;10.68;;;5.38;;
9420;SDS011;4749;51.398;5.466;2023-05-07T12:31:34;8.48;;;5.07;;
9420;SDS011;4749;51.398;5.466;2023-05-07T12:34:02;10.40;;;5.22;;
9420;SDS011;4749;51.398;5.466;2023-05-07T12:36:36;7.57;;;5.03;;
9420;SDS011;4749;51.398;5.466;2023-05-07T12:39:05;4.55;;;2.70;;
9420;SDS011;4749;51.398;5.466;2023-05-07T12:44:22;4.78;;;1.88;;
9420;SDS011;4749;51.398;5.466;2023-05-07T12:46:55;3.75;;;1.83;;
9420;SDS011;4749;51.398;5.466;2023-05-07T12:49:25;4.30;;;1.88;;
9420;SDS011;4749;51.398;5.466;2023-05-07T12:51:53;3.70;;;1.88;;
9420;SDS011;4749;51.398;5.466;2023-05-07T12:54:34;2.80;;;1.70;;
9420;SDS011;4749;51.398;5.466;2023-05-07T12:57:05;5.20;;;1.80;;
9420;SDS011;4749;51.398;5.466;2023-05-07T12:59:38;3.88;;;2.10;;
9420;SDS011;4749;51.398;5.466;2023-05-07T13:02:08;2.00;;;1.52;;
9420;SDS011;4749;51.398;5.466;2023-05-07T13:04:36;2.97;;;1.90;;
9420;SDS011;4749;51.398;5.466;2023-05-07T13:07:03;4.80;;;1.63;;
9420;SDS011;4749;51.398;5.466;2023-05-07T13:09:30;3.47;;;1.52;;
9420;SDS011;4749;51.398;5.466;2023-05-07T13:11:57;5.40;;;1.73;;
9420;SDS011;4749;51.398;5.466;2023-05-07T13:14:28;3.90;;;2.10;;
9420;SDS011;4749;51.398;5.466;2023-05-07T13:16:56;3.90;;;1.60;;
9420;SDS011;4749;51.398;5.466;2023-05-07T13:19:26;3.33;;;2.13;;
9420;SDS011;4749;51.398;5.466;2023-05-07T13:21:56;3.95;;;2.17;;
9420;SDS011;4749;51.398;5.466;2023-05-07T13:24:24;3.83;;;2.20;;
9420;SDS011;4749;51.398;5.466;2023-05-07T13:26:52;2.85;;;2.08;;
9420;SDS011;4749;51.398;5.466;2023-05-07T13:29:19;3.22;;;1.73;;
9420;SDS011;4749;51.398;5.466;2023-05-07T13:31:51;4.07;;;2.10;;
9420;SDS011;4749;51.398;5.466;2023-05-07T13:34:19;2.83;;;1.88;;
9420;SDS011;4749;51.398;5.466;2023-05-07T13:36:47;5.50;;;2.10;;
9420;SDS011;4749;51.398;5.466;2023-05-07T13:39:14;3.10;;;2.10;;
9420;SDS011;4749;51.398;5.466;2023-05-07T13:41:41;3.83;;;2.10;;
9420;SDS011;4749;51.398;5.466;2023-05-07T13:44:08;3.65;;;1.73;;
9420;SDS011;4749;51.398;5.466;2023-05-07T13:46:36;3.28;;;2.10;;
9420;SDS011;4749;51.398;5.466;2023-05-07T13:49:03;5.32;;;2.20;;
9420;SDS011;4749;51.398;5.466;2023-05-07T13:51:30;3.03;;;2.28;;
9420;SDS011;4749;51.398;5.466;2023-05-07T13:53:58;5.90;;;1.77;;
9420;SDS011;4749;51.398;5.466;2023-05-07T13:56:25;3.17;;;2.00;;
9420;SDS011;4749;51.398;5.466;2023-05-07T13:58:52;5.25;;;2.92;;
9420;SDS011;4749;51.398;5.466;2023-05-07T14:01:25;3.67;;;2.55;;
9420;SDS011;4749;51.398;5.466;2023-05-07T14:03:53;8.25;;;2.45;;
9420;SDS011;4749;51.398;5.466;2023-05-07T14:06:22;4.38;;;2.63;;
9420;SDS011;4749;51.398;5.466;2023-05-07T14:08:49;3.40;;;1.70;;
9420;SDS011;4749;51.398;5.466;2023-05-07T14:11:16;2.60;;;1.70;;
9420;SDS011;4749;51.398;5.466;2023-05-07T14:13:43;3.60;;;1.63;;
9420;SDS011;4749;51.398;5.466;2023-05-07T14:16:11;4.05;;;1.80;;
9420;SDS011;4749;51.398;5.466;2023-05-07T14:18:38;6.38;;;2.00;;
9420;SDS011;4749;51.398;5.466;2023-05-07T14:21:05;2.97;;;1.80;;
9420;SDS011;4749;51.398;5.466;2023-05-07T14:23:36;4.95;;;1.80;;
9420;SDS011;4749;51.398;5.466;2023-05-07T14:26:03;4.15;;;1.80;;
9420;SDS011;4749;51.398;5.466;2023-05-07T14:28:30;4.30;;;2.10;;
9420;SDS011;4749;51.398;5.466;2023-05-07T14:31:00;2.72;;;1.73;;
9420;SDS011;4749;51.398;5.466;2023-05-07T14:33:28;3.53;;;2.03;;
9420;SDS011;4749;51.398;5.466;2023-05-07T14:35:55;5.78;;;2.50;;
9420;SDS011;4749;51.398;5.466;2023-05-07T14:38:22;3.30;;;1.92;;
9420;SDS011;4749;51.398;5.466;2023-05-07T14:40:49;3.97;;;2.10;;
9420;SDS011;4749;51.398;5.466;2023-05-07T14:43:16;3.30;;;2.13;;
9420;SDS011;4749;51.398;5.466;2023-05-07T14:45:43;5.38;;;3.05;;
9420;SDS011;4749;51.398;5.466;2023-05-07T14:48:11;4.72;;;2.55;;
9420;SDS011;4749;51.398;5.466;2023-05-07T14:50:42;3.85;;;2.08;;
9420;SDS011;4749;51.398;5.466;2023-05-07T14:53:09;4.55;;;2.67;;
9420;SDS011;4749;51.398;5.466;2023-05-07T14:55:36;3.53;;;2.30;;
9420;SDS011;4749;51.398;5.466;2023-05-07T14:58:03;2.85;;;2.50;;
9420;SDS011;4749;51.398;5.466;2023-05-07T15:00:30;3.35;;;2.53;;
9420;SDS011;4749;51.398;5.466;2023-05-07T15:03:04;4.80;;;2.53;;
9420;SDS011;4749;51.398;5.466;2023-05-07T15:05:37;3.33;;;2.30;;
9420;SDS011;4749;51.398;5.466;2023-05-07T15:08:04;3.13;;;2.15;;
9420;SDS011;4749;51.398;5.466;2023-05-07T15:10:34;5.70;;;2.75;;
9420;SDS011;4749;51.398;5.466;2023-05-07T15:13:10;5.57;;;2.40;;
9420;SDS011;4749;51.398;5.466;2023-05-07T15:15:42;3.55;;;2.58;;
9420;SDS011;4749;51.398;5.466;2023-05-07T15:18:10;5.80;;;2.42;;
9420;SDS011;4749;51.398;5.466;2023-05-07T15:20:37;4.10;;;2.10;;
9420;SDS011;4749;51.398;5.466;2023-05-07T15:23:05;3.97;;;2.50;;
9420;SDS011;4749;51.398;5.466;2023-05-07T15:25:36;3.95;;;2.67;;
9420;SDS011;4749;51.398;5.466;2023-05-07T15:28:03;4.47;;;2.50;;
9420;SDS011;4749;51.398;5.466;2023-05-07T15:30:30;3.20;;;2.30;;
9420;SDS011;4749;51.398;5.466;2023-05-07T15:32:58;4.22;;;2.40;;
9420;SDS011;4749;51.398;5.466;2023-05-07T15:35:25;4.75;;;2.50;;